Time;durP1;ratioP1;P1;durP2;ratioP2;P2;SDS_P1;SDS_P2;PMS_P1;PMS_P2;Temp;Humidity;BMP_temperature;BMP_pressure;BME280_temperature;BME280_humidity;BME280_pressure;Samples;Min_cycle;Max_cycle;Signal;HPM_P1;HPM_P2
2023/05/01 00:00:52;;;;;;;6.28;3.78;;;7.90;96.60;;;;;;4997156;28;20538;-83
2023/05/01 00:03:18;;;;;;;8.40;3.80;;;7.90;96.60;;;;;;4996560;28;20176;-83
2023/05/01 00:05:44;;;;;;;5.50;4.00;;;8.00;96.60;;;;;;4995484;28;20200;-83
2023/05/01 00:08:10;;;;;;;3.90;3.42;;;8.00;96.40;;;;;;4996887;28;20284;-83
2023/05/01 00:10:36;;;;;;;7.35;3.55;;;7.80;96.50;;;;;;4995603;28;20197;-83
2023/05/01 00:13:02;;;;;;;5.20;3.90;;;7.80;96.80;;;;;;4995517;28;20184;-83
2023/05/01 00:15:28;;;;;;;7.30;3.95;;;7.70;96.80;;;;;;4995180;28;20188;-83
2023/05/01 00:17:54;;;;;;;7.30;4.00;;;7.70;96.60;;;;;;4995496;28;20204;-83
2023/05/01 00:20:20;;;;;;;5.95;4.30;;;7.70;96.60;;;;;;4996028;28;20169;-83
2023/05/01 00:22:46;;;;;;;15.30;4.05;;;7.80;96.50;;;;;;4995271;28;20558;-83
2023/05/01 00:25:12;;;;;;;6.25;4.13;;;7.80;96.30;;;;;;4996270;28;20243;-83
2023/05/01 00:27:38;;;;;;;8.57;4.63;;;7.70;96.30;;;;;;4996513;28;20242;-83
2023/05/01 00:30:04;;;;;;;6.25;4.40;;;7.60;96.60;;;;;;4996359;28;20199;-83
2023/05/01 00:32:29;;;;;;;10.52;4.32;;;7.50;97.20;;;;;;4995006;28;20191;-83
2023/05/01 00:34:56;;;;;;;5.95;4.13;;;7.30;97.50;;;;;;4994921;28;20184;-83
2023/05/01 00:37:23;;;;;;;8.70;4.68;;;7.20;98.00;;;;;;4995185;28;20236;-83
2023/05/01 00:39:48;;;;;;;8.55;4.60;;;7.20;98.00;;;;;;4996219;28;20185;-83
2023/05/01 00:42:14;;;;;;;6.75;4.65;;;7.20;98.10;;;;;;4995638;28;20510;-83
2023/05/01 00:44:40;;;;;;;7.55;4.80;;;7.30;97.90;;;;;;4995667;28;20172;-83
2023/05/01 00:47:05;;;;;;;7.80;4.45;;;7.20;98.00;;;;;;4996100;28;20204;-83
2023/05/01 00:49:32;;;;;;;6.30;4.90;;;7.20;97.90;;;;;;4995519;28;20187;-83
2023/05/01 00:51:58;;;;;;;10.80;5.15;;;7.20;97.80;;;;;;4994839;28;20266;-83
2023/05/01 00:54:25;;;;;;;6.50;4.75;;;7.20;97.60;;;;;;4995439;28;20184;-83
2023/05/01 00:56:51;;;;;;;6.68;5.60;;;7.30;97.70;;;;;;4994472;28;20212;-83
2023/05/01 00:59:17;;;;;;;7.25;5.43;;;7.30;97.60;;;;;;4994851;28;20183;-83
2023/05/01 01:20:39;;;;;;;9.93;6.40;;;7.00;97.90;;;;;;5012434;28;20324;-83
2023/05/01 01:23:43;;;;;;;9.48;6.07;;;7.10;98.00;;;;;;5014070;28;20594;-83
2023/05/01 01:26:37;;;;;;;9.07;5.93;;;7.00;98.10;;;;;;5007265;28;20196;-83
2023/05/01 01:29:49;;;;;;;10.48;6.45;;;7.00;98.20;;;;;;4994590;28;20773;-83
2023/05/01 01:32:41;;;;;;;9.90;6.18;;;7.10;98.10;;;;;;4993935;28;20180;-83
2023/05/01 01:35:16;;;;;;;9.13;6.05;;;7.10;98.30;;;;;;4994115;28;20176;-83
2023/05/01 01:37:48;;;;;;;11.00;6.68;;;7.00;98.20;;;;;;4994044;28;20239;-83
2023/05/01 01:40:21;;;;;;;9.07;6.00;;;7.00;98.20;;;;;;4994864;28;20180;-83
2023/05/01 01:42:58;;;;;;;9.63;6.18;;;6.80;98.40;;;;;;4994361;28;20677;-83
2023/05/01 01:45:40;;;;;;;7.95;5.78;;;6.70;98.70;;;;;;4994469;28;20168;-82
2023/05/01 01:48:13;;;;;;;13.30;5.70;;;6.50;99.20;;;;;;4994178;28;20203;-83
2023/05/01 01:50:41;;;;;;;10.27;6.80;;;6.60;99.30;;;;;;4995273;28;20170;-82
2023/05/01 01:53:08;;;;;;;10.35;6.10;;;6.70;99.20;;;;;;4995151;28;20255;-82
2023/05/01 01:55:36;;;;;;;8.82;5.95;;;6.70;99.00;;;;;;4993726;28;20200;-83
2023/05/01 01:58:04;;;;;;;8.63;6.22;;;6.70;99.00;;;;;;4993936;28;20250;-82
2023/05/01 02:00:30;;;;;;;9.65;5.78;;;6.60;99.20;;;;;;4993911;28;20176;-82
2023/05/01 02:02:59;;;;;;;8.80;5.80;;;6.60;99.30;;;;;;4993912;28;20180;-82
2023/05/01 02:05:26;;;;;;;9.07;5.97;;;6.60;99.20;;;;;;4993658;28;20595;-82
2023/05/01 02:07:52;;;;;;;10.93;6.35;;;6.50;99.40;;;;;;4993447;28;20234;-82
2023/05/01 02:10:21;;;;;;;7.47;5.68;;;6.50;99.40;;;;;;4993599;28;20194;-82
2023/05/01 02:12:50;;;;;;;7.82;5.68;;;6.50;99.40;;;;;;4995422;28;20184;-82
2023/05/01 02:15:20;;;;;;;7.90;5.45;;;6.60;99.50;;;;;;4993520;28;20323;-81
2023/05/01 02:17:47;;;;;;;12.27;6.30;;;6.50;99.40;;;;;;4993871;28;20329;-81
2023/05/01 02:20:14;;;;;;;11.27;5.40;;;6.50;99.50;;;;;;4993239;28;20215;-81
2023/05/01 02:22:41;;;;;;;12.70;6.18;;;6.50;99.50;;;;;;4993591;28;20623;-81
2023/05/01 02:25:11;;;;;;;7.50;5.47;;;6.50;99.70;;;;;;4993234;28;20176;-81
2023/05/01 02:27:46;;;;;;;8.18;5.20;;;6.50;99.50;;;;;;4993226;28;20180;-81
2023/05/01 02:30:11;;;;;;;7.85;5.28;;;6.60;99.50;;;;;;4992909;28;20734;-81
2023/05/01 02:32:37;;;;;;;10.20;5.13;;;6.60;99.50;;;;;;4993944;28;20223;-81
2023/05/01 02:35:03;;;;;;;9.43;5.03;;;6.60;99.60;;;;;;4993110;28;20191;-81
2023/05/01 02:37:29;;;;;;;6.72;4.72;;;6.60;99.60;;;;;;4993170;28;20266;-81
2023/05/01 02:39:56;;;;;;;7.85;5.32;;;6.70;99.50;;;;;;4993299;28;20228;-81
2023/05/01 02:42:24;;;;;;;9.52;5.78;;;6.70;99.20;;;;;;4993714;28;20176;-81
2023/05/01 02:44:57;;;;;;;6.65;5.25;;;6.70;99.20;;;;;;4993320;28;20180;-81
2023/05/01 02:47:23;;;;;;;8.52;5.40;;;6.70;99.00;;;;;;4992897;28;20196;-81
2023/05/01 02:49:50;;;;;;;10.10;5.45;;;6.70;99.20;;;;;;4992900;28;20184;-81
2023/05/01 02:52:17;;;;;;;7.55;5.10;;;6.70;99.10;;;;;;4993340;28;20203;-81
2023/05/01 02:54:44;;;;;;;6.82;4.93;;;6.60;99.20;;;;;;4993337;28;20182;-81
2023/05/01 02:57:10;;;;;;;9.40;4.65;;;6.60;99.50;;;;;;4993329;28;20350;-81
2023/05/01 02:59:36;;;;;;;8.13;5.40;;;6.60;99.40;;;;;;4993780;28;20639;-81
2023/05/01 03:02:03;;;;;;;6.93;4.88;;;6.60;99.50;;;;;;4992780;28;20172;-81
2023/05/01 03:04:28;;;;;;;9.45;5.25;;;6.70;99.50;;;;;;4992849;28;20187;-81
2023/05/01 03:06:54;;;;;;;7.20;4.97;;;6.70;99.30;;;;;;4993085;28;20240;-81
2023/05/01 03:09:21;;;;;;;6.45;4.95;;;6.60;99.40;;;;;;4993969;28;20180;-81
2023/05/01 03:11:46;;;;;;;6.45;4.95;;;6.50;99.40;;;;;;4993036;28;20192;-81
2023/05/01 03:14:12;;;;;;;6.00;5.20;;;6.40;99.50;;;;;;4992977;28;20187;-81
2023/05/01 03:16:38;;;;;;;9.40;5.53;;;6.40;99.80;;;;;;4992943;28;20204;-81
2023/05/01 03:19:04;;;;;;;7.15;5.30;;;6.40;99.60;;;;;;4992723;28;20196;-81
2023/05/01 03:21:31;;;;;;;6.50;5.00;;;6.50;99.60;;;;;;4992868;28;20180;-81
2023/05/01 03:23:57;;;;;;;7.00;4.97;;;6.50;99.60;;;;;;4992896;28;20187;-81
2023/05/01 03:26:22;;;;;;;10.25;5.43;;;6.40;99.60;;;;;;4993968;28;20296;-81
2023/05/01 03:28:48;;;;;;;7.40;6.20;;;6.40;99.60;;;;;;4993721;28;20226;-81
2023/05/01 03:31:14;;;;;;;5.90;5.28;;;6.40;99.70;;;;;;4992512;28;20651;-81
2023/05/01 03:33:40;;;;;;;8.10;5.28;;;6.30;99.90;;;;;;4992462;28;20187;-81
2023/05/01 03:36:06;;;;;;;7.57;5.65;;;6.30;99.90;;;;;;4992787;28;20382;-81
2023/05/01 03:38:32;;;;;;;8.70;5.40;;;6.40;99.90;;;;;;4992404;28;20320;-81
2023/05/01 03:40:58;;;;;;;8.27;5.85;;;6.50;99.90;;;;;;4992401;28;20191;-81
2023/05/01 03:43:25;;;;;;;10.48;5.72;;;6.50;99.90;;;;;;4992718;28;20176;-81
2023/05/01 03:45:51;;;;;;;11.05;6.45;;;6.50;99.90;;;;;;4993939;28;20246;-81
2023/05/01 03:48:19;;;;;;;7.25;5.70;;;6.50;99.70;;;;;;4996025;28;20188;-81
2023/05/01 03:50:45;;;;;;;7.38;5.65;;;6.50;99.80;;;;;;4996313;28;20180;-81
2023/05/01 03:53:11;;;;;;;9.15;5.82;;;6.50;99.80;;;;;;4995811;28;20594;-81
2023/05/01 03:55:37;;;;;;;6.68;5.43;;;6.50;99.80;;;;;;4997285;28;20670;-81
2023/05/01 03:58:03;;;;;;;8.10;5.57;;;6.50;99.80;;;;;;4996186;28;20204;-81
2023/05/01 04:00:28;;;;;;;11.13;5.93;;;6.60;99.80;;;;;;4996585;28;20231;-81
2023/05/01 04:02:55;;;;;;;7.90;6.15;;;6.50;99.60;;;;;;4996282;28;20698;-81
2023/05/01 04:05:21;;;;;;;9.10;6.13;;;6.40;99.80;;;;;;4996384;28;20247;-81
2023/05/01 04:07:46;;;;;;;8.55;5.95;;;6.40;99.80;;;;;;4995630;28;20188;-81
2023/05/01 04:10:12;;;;;;;6.95;6.22;;;6.40;99.90;;;;;;4997002;28;20621;-81
2023/05/01 04:12:38;;;;;;;8.40;6.00;;;6.50;99.90;;;;;;4995396;28;20184;-81
2023/05/01 04:15:03;;;;;;;10.90;6.10;;;6.50;99.90;;;;;;4995471;28;20180;-81
2023/05/01 04:17:29;;;;;;;9.35;6.30;;;6.60;99.80;;;;;;4995559;28;20239;-81
2023/05/01 04:19:55;;;;;;;10.98;6.50;;;6.50;99.70;;;;;;4995152;28;20200;-81
2023/05/01 04:22:22;;;;;;;8.93;6.00;;;6.60;99.70;;;;;;4995368;28;20180;-81
2023/05/01 04:24:48;;;;;;;7.78;5.53;;;6.60;99.80;;;;;;4996892;28;20180;-81
2023/05/01 04:27:14;;;;;;;8.80;5.85;;;6.60;99.70;;;;;;4995604;28;20295;-81
2023/05/01 04:29:40;;;;;;;9.18;6.53;;;6.60;99.80;;;;;;4995224;28;20708;-81
2023/05/01 04:32:06;;;;;;;8.15;6.15;;;6.60;99.70;;;;;;4995271;28;20192;-81
2023/05/01 04:34:32;;;;;;;11.15;6.85;;;6.70;99.70;;;;;;4995379;28;20180;-81
2023/05/01 04:36:58;;;;;;;11.20;6.63;;;6.70;99.40;;;;;;4995347;28;20223;-81
2023/05/01 04:39:23;;;;;;;12.00;7.22;;;6.60;99.40;;;;;;4995250;28;20176;-81
2023/05/01 04:41:49;;;;;;;10.35;6.72;;;6.70;99.70;;;;;;4996455;28;20184;-81
2023/05/01 04:44:15;;;;;;;13.45;7.25;;;6.60;99.70;;;;;;4995101;28;20223;-81
2023/05/01 04:46:41;;;;;;;9.60;6.80;;;6.80;99.70;;;;;;4996351;28;20210;-81
2023/05/01 04:49:07;;;;;;;11.32;6.95;;;6.80;99.50;;;;;;4994894;28;20643;-81
2023/05/01 04:51:32;;;;;;;11.30;7.50;;;6.80;99.50;;;;;;4995009;28;20171;-81
2023/05/01 04:53:58;;;;;;;9.80;6.75;;;6.90;99.50;;;;;;4994858;28;20730;-81
2023/05/01 04:56:24;;;;;;;10.95;7.00;;;7.10;99.50;;;;;;4995269;28;20204;-81
2023/05/01 04:58:50;;;;;;;13.85;7.82;;;7.20;99.30;;;;;;4994594;28;20227;-81
2023/05/01 05:01:16;;;;;;;11.25;7.65;;;7.40;99.00;;;;;;4995817;28;20172;-81
2023/05/01 05:03:41;;;;;;;9.90;7.18;;;7.60;98.80;;;;;;4996089;28;20206;-81
2023/05/01 05:06:07;;;;;;;12.20;7.03;;;7.70;98.40;;;;;;4994803;28;20196;-81
2023/05/01 05:08:33;;;;;;;8.63;6.90;;;7.90;98.20;;;;;;4994814;28;20249;-81
2023/05/01 05:11:00;;;;;;;12.65;6.93;;;8.00;98.00;;;;;;4995233;28;20286;-81
2023/05/01 05:13:26;;;;;;;10.52;7.40;;;8.20;97.80;;;;;;4994504;28;20195;-81
2023/05/01 05:15:52;;;;;;;7.85;6.85;;;8.30;97.50;;;;;;4994343;28;20197;-81
2023/05/01 05:18:17;;;;;;;9.95;7.07;;;8.50;97.30;;;;;;4994187;28;20330;-81
2023/05/01 05:20:43;;;;;;;12.43;7.45;;;8.70;96.80;;;;;;4995762;28;20175;-81
2023/05/01 05:23:09;;;;;;;11.23;6.80;;;8.80;96.70;;;;;;4994515;28;20271;-81
2023/05/01 05:25:35;;;;;;;10.60;6.57;;;8.90;96.50;;;;;;4994987;28;20200;-81
2023/05/01 05:28:00;;;;;;;11.40;7.07;;;9.10;97.00;;;;;;4994163;28;20180;-81
2023/05/01 05:30:26;;;;;;;10.68;7.07;;;9.30;97.00;;;;;;4994436;28;20180;-81
2023/05/01 05:32:52;;;;;;;11.10;6.53;;;9.30;96.70;;;;;;4994439;28;20226;-81
2023/05/01 05:35:18;;;;;;;9.50;6.68;;;9.60;96.40;;;;;;4994026;28;20651;-81
2023/05/01 05:37:43;;;;;;;9.50;6.78;;;9.60;95.90;;;;;;4994820;28;20565;-81
2023/05/01 05:40:09;;;;;;;8.40;6.28;;;9.80;96.00;;;;;;4993863;28;20275;-82
2023/05/01 05:42:35;;;;;;;8.65;6.32;;;9.90;96.30;;;;;;4994158;28;20176;-82
2023/05/01 05:45:01;;;;;;;9.43;6.60;;;10.00;95.60;;;;;;4994075;28;20183;-84
2023/05/01 05:47:27;;;;;;;7.65;6.40;;;10.30;95.20;;;;;;4994589;28;20651;-83
2023/05/01 05:49:54;;;;;;;11.18;6.25;;;10.40;94.90;;;;;;4993781;28;20184;-86
2023/05/01 05:52:20;;;;;;;9.00;6.20;;;10.50;95.20;;;;;;4993910;28;20175;-84
2023/05/01 05:54:46;;;;;;;7.07;6.10;;;10.40;96.60;;;;;;4993663;28;20180;-83
2023/05/01 05:57:11;;;;;;;11.23;7.32;;;10.40;96.80;;;;;;4993345;28;20294;-83
2023/05/01 05:59:37;;;;;;;10.70;7.10;;;10.40;97.00;;;;;;4993480;28;20176;-83
2023/05/01 06:02:03;;;;;;;12.07;7.32;;;10.50;96.00;;;;;;4994686;28;20190;-84
2023/05/01 06:04:28;;;;;;;10.40;7.03;;;10.60;94.90;;;;;;4994312;28;20188;-84
2023/05/01 06:06:54;;;;;;;10.48;7.10;;;10.70;94.70;;;;;;4994301;28;20308;-84
2023/05/01 06:09:20;;;;;;;13.77;7.65;;;10.90;94.20;;;;;;4992935;28;20234;-84
2023/05/01 06:11:47;;;;;;;9.90;7.55;;;11.10;93.50;;;;;;4993280;28;20184;-84
2023/05/01 06:14:12;;;;;;;11.18;7.25;;;11.10;93.40;;;;;;4994513;28;20255;-84
2023/05/01 06:16:38;;;;;;;10.88;7.82;;;11.30;93.20;;;;;;4993083;28;20231;-83
2023/05/01 06:19:04;;;;;;;11.38;7.28;;;11.30;92.90;;;;;;4994516;28;20188;-83
2023/05/01 06:21:31;;;;;;;9.73;6.63;;;11.40;93.20;;;;;;4993362;28;20172;-83
2023/05/01 06:23:57;;;;;;;12.65;7.13;;;11.50;94.40;;;;;;4994196;28;20184;-83
2023/05/01 06:26:22;;;;;;;8.73;7.05;;;11.60;94.60;;;;;;4993624;28;20334;-83
2023/05/01 06:29:09;;;;;;;10.18;7.80;;;11.70;92.30;;;;;;4993847;28;20212;-83
2023/05/01 06:32:36;;;;;;;12.77;8.25;;;11.80;92.30;;;;;;4980931;28;20179;-83
2023/05/01 06:35:02;;;;;;;11.52;7.13;;;11.80;91.80;;;;;;4993342;28;20172;-83
2023/05/01 06:37:28;;;;;;;12.50;7.85;;;12.10;92.00;;;;;;4992561;28;20563;-83
2023/05/01 06:39:54;;;;;;;13.10;7.15;;;12.20;92.40;;;;;;4982115;28;20176;-83
2023/05/01 06:42:20;;;;;;;12.48;7.22;;;12.30;92.50;;;;;;4986343;28;20259;-83
2023/05/01 06:44:45;;;;;;;10.93;7.65;;;12.50;91.10;;;;;;4984503;28;20560;-83
2023/05/01 06:47:11;;;;;;;10.68;6.93;;;12.50;90.20;;;;;;4989425;28;20216;-83
2023/05/01 06:49:37;;;;;;;10.45;7.30;;;12.50;88.60;;;;;;4993688;28;20176;-84
2023/05/01 06:52:02;;;;;;;8.38;6.30;;;12.50;86.80;;;;;;4993169;28;20216;-83
2023/05/01 06:54:28;;;;;;;13.05;9.43;;;12.50;83.10;;;;;;4993434;28;20180;-85
2023/05/01 06:56:54;;;;;;;10.98;6.88;;;12.30;82.70;;;;;;4993414;28;20295;-84
2023/05/01 06:59:19;;;;;;;10.38;7.90;;;12.40;84.40;;;;;;4993177;28;20187;-83
2023/05/01 07:01:45;;;;;;;7.15;6.13;;;12.70;82.30;;;;;;4992684;28;20173;-83
2023/05/01 07:04:11;;;;;;;8.63;6.30;;;12.90;80.90;;;;;;4993753;28;20180;-84
2023/05/01 07:06:36;;;;;;;11.15;6.03;;;13.10;81.00;;;;;;4985843;28;20201;-84
2023/05/01 07:09:06;;;;;;;6.60;5.57;;;13.30;79.20;;;;;;4985735;28;20243;-83
2023/05/01 07:11:37;;;;;;;8.70;5.55;;;13.40;81.20;;;;;;4983214;28;20185;-83
2023/05/01 07:14:02;;;;;;;9.60;6.90;;;13.50;79.60;;;;;;4982199;28;20562;-84
2023/05/01 07:16:28;;;;;;;7.57;5.80;;;13.60;77.20;;;;;;4986950;28;20202;-83
2023/05/01 07:18:54;;;;;;;8.82;6.20;;;13.50;76.20;;;;;;4990140;28;20223;-83
2023/05/01 07:21:19;;;;;;;7.93;5.35;;;13.50;79.90;;;;;;4978975;28;20181;-83
2023/05/01 07:23:45;;;;;;;8.65;5.78;;;13.60;77.60;;;;;;4977729;28;20234;-84
2023/05/01 07:26:11;;;;;;;7.65;5.45;;;13.80;78.90;;;;;;4977345;28;20235;-83
2023/05/01 07:28:36;;;;;;;9.10;5.40;;;14.10;77.00;;;;;;4977284;28;20177;-84
2023/05/01 07:31:02;;;;;;;7.85;5.60;;;14.30;76.90;;;;;;4977909;28;20177;-85
2023/05/01 07:33:28;;;;;;;11.40;6.32;;;14.50;76.00;;;;;;4978391;28;20189;-83
2023/05/01 07:35:54;;;;;;;10.80;6.35;;;14.70;75.40;;;;;;4977398;28;20197;-83
2023/05/01 07:38:19;;;;;;;9.57;6.65;;;14.70;76.40;;;;;;4977267;28;20211;-84
2023/05/01 07:40:45;;;;;;;7.50;5.63;;;14.30;73.90;;;;;;4977877;28;20184;-83
2023/05/01 07:43:11;;;;;;;9.23;6.15;;;14.20;74.30;;;;;;4978127;28;20185;-84
2023/05/01 07:45:37;;;;;;;10.43;6.13;;;14.30;76.40;;;;;;4977246;28;20660;-83
2023/05/01 07:48:04;;;;;;;7.90;5.70;;;14.50;75.40;;;;;;4977334;28;20232;-83
2023/05/01 07:50:30;;;;;;;8.88;5.88;;;14.80;76.00;;;;;;4977111;28;20177;-83
2023/05/01 07:52:56;;;;;;;8.77;5.72;;;14.80;75.70;;;;;;4976669;28;20208;-82
2023/05/01 07:55:22;;;;;;;8.70;6.55;;;14.50;73.10;;;;;;4977196;28;20227;-85
2023/05/01 07:57:51;;;;;;;7.32;5.38;;;14.60;74.40;;;;;;4976404;28;20251;-84
2023/05/01 08:00:17;;;;;;;5.60;4.97;;;14.70;74.20;;;;;;4976504;28;20184;-83
2023/05/01 08:02:43;;;;;;;10.13;5.80;;;14.70;73.80;;;;;;4976720;28;20272;-84
2023/05/01 08:05:09;;;;;;;8.18;5.45;;;14.80;74.10;;;;;;4976812;28;20216;-84
2023/05/01 08:07:35;;;;;;;9.50;6.15;;;15.00;73.00;;;;;;4978591;28;20201;-85
2023/05/01 08:10:01;;;;;;;6.25;5.63;;;15.40;75.10;;;;;;4975989;28;20275;-86
2023/05/01 08:12:28;;;;;;;9.25;5.88;;;15.40;70.60;;;;;;4976016;28;20275;-86
2023/05/01 08:14:53;;;;;;;8.70;5.72;;;15.50;71.40;;;;;;4976179;28;20211;-85
2023/05/01 08:17:20;;;;;;;7.88;5.65;;;15.70;71.60;;;;;;4976240;28;20209;-86
2023/05/01 08:19:45;;;;;;;10.68;5.88;;;15.70;73.20;;;;;;4975918;28;20185;-86
2023/05/01 08:22:11;;;;;;;8.85;5.50;;;15.90;72.40;;;;;;4977756;28;20180;-86
2023/05/01 08:24:41;;;;;;;8.00;5.28;;;15.90;72.90;;;;;;4976896;28;20263;-86
2023/05/01 08:27:08;;;;;;;9.15;5.45;;;15.90;70.90;;;;;;4975638;28;20708;-86
2023/05/01 08:29:34;;;;;;;8.25;5.32;;;16.00;70.90;;;;;;4977071;28;20526;-86
2023/05/01 08:31:59;;;;;;;6.63;5.40;;;16.10;71.10;;;;;;4975781;28;20187;-86
2023/05/01 08:34:25;;;;;;;11.93;5.63;;;16.30;69.60;;;;;;4975612;28;20196;-86
2023/05/01 08:36:51;;;;;;;9.88;5.85;;;16.20;70.10;;;;;;4975735;28;20197;-86
2023/05/01 08:39:16;;;;;;;10.25;5.68;;;16.30;71.10;;;;;;4975606;28;20210;-86
2023/05/01 08:41:46;;;;;;;8.80;6.45;;;16.20;70.40;;;;;;4975540;28;20209;-86
2023/05/01 08:44:14;;;;;;;8.02;5.90;;;16.10;68.70;;;;;;4976336;28;20576;-85
2023/05/01 08:47:03;;;;;;;8.90;5.95;;;16.10;69.10;;;;;;4975916;28;20232;-84
2023/05/01 08:49:32;;;;;;;6.85;5.65;;;16.30;68.90;;;;;;4975678;28;20184;-84
2023/05/01 08:52:02;;;;;;;7.47;5.68;;;16.50;68.80;;;;;;4975266;28;20715;-85
2023/05/01 08:54:38;;;;;;;10.73;5.80;;;16.40;67.70;;;;;;4975362;28;20215;-86
2023/05/01 08:57:10;;;;;;;7.00;5.28;;;16.50;68.40;;;;;;4975163;28;20217;-86
2023/05/01 08:59:38;;;;;;;8.38;5.70;;;16.40;68.00;;;;;;4975819;28;20240;-85
2023/05/01 09:02:06;;;;;;;9.65;5.88;;;16.30;68.50;;;;;;4975129;28;20188;-85
2023/05/01 09:04:35;;;;;;;7.07;5.60;;;16.50;68.30;;;;;;4975967;28;20191;-86
2023/05/01 09:07:01;;;;;;;7.38;5.15;;;16.60;68.30;;;;;;4979944;28;20230;-83
2023/05/01 09:09:28;;;;;;;7.07;5.18;;;17.00;68.30;;;;;;4993644;28;20216;-83
2023/05/01 09:12:20;;;;;;;6.63;5.20;;;17.30;68.20;;;;;;4979241;28;20248;-83
2023/05/01 09:14:46;;;;;;;6.78;5.72;;;17.30;68.80;;;;;;4975196;28;20177;-83
2023/05/01 09:17:13;;;;;;;9.43;5.30;;;17.30;68.00;;;;;;4975089;28;20303;-83
2023/05/01 09:19:39;;;;;;;7.10;5.50;;;17.30;68.00;;;;;;4974055;28;20201;-83
2023/05/01 09:22:06;;;;;;;7.28;5.63;;;17.60;65.90;;;;;;4973967;28;20235;-83
2023/05/01 09:24:32;;;;;;;9.05;5.60;;;17.40;65.60;;;;;;4973939;28;20181;-83
2023/05/01 09:26:58;;;;;;;5.75;5.10;;;17.50;65.90;;;;;;4974462;28;20205;-83
2023/05/01 09:29:47;;;;;;;6.30;5.30;;;17.60;65.80;;;;;;4976146;28;20177;-83
2023/05/01 09:32:19;;;;;;;7.53;5.15;;;17.70;65.20;;;;;;4974858;28;20208;-83
2023/05/01 09:34:45;;;;;;;9.48;5.30;;;17.80;65.50;;;;;;4975890;28;20180;-83
2023/05/01 09:37:28;;;;;;;6.90;5.57;;;17.80;65.50;;;;;;4974987;28;20283;-83
2023/05/01 09:40:07;;;;;;;9.65;5.88;;;17.70;64.20;;;;;;4975337;28;20208;-82
2023/05/01 09:42:56;;;;;;;7.45;5.03;;;17.30;65.70;;;;;;4975461;28;20172;-82
2023/05/01 09:45:22;;;;;;;5.95;5.35;;;17.40;66.50;;;;;;4975013;28;20213;-83
2023/05/01 09:47:48;;;;;;;9.30;5.88;;;17.50;67.00;;;;;;4975751;28;20181;-83
2023/05/01 09:50:30;;;;;;;9.93;5.90;;;17.50;67.30;;;;;;4974731;28;20181;-84
2023/05/01 09:52:56;;;;;;;8.55;5.45;;;17.60;68.80;;;;;;4974287;28;20180;-84
2023/05/01 09:55:25;;;;;;;6.03;5.32;;;17.70;68.60;;;;;;4974209;28;20185;-82
2023/05/01 09:57:51;;;;;;;11.13;5.93;;;17.70;68.50;;;;;;4974380;28;20264;-84
2023/05/01 10:00:19;;;;;;;11.25;6.40;;;17.70;68.90;;;;;;4975031;28;20201;-83
2023/05/01 10:02:46;;;;;;;8.52;5.65;;;17.60;69.50;;;;;;4974283;28;20180;-83
2023/05/01 10:05:13;;;;;;;7.75;5.78;;;17.70;68.70;;;;;;4974372;28;20224;-82
2023/05/01 10:07:39;;;;;;;7.88;5.70;;;17.50;70.20;;;;;;4975080;28;20196;-82
2023/05/01 10:10:19;;;;;;;7.63;5.50;;;17.50;68.80;;;;;;4975581;28;20193;-82
2023/05/01 10:12:45;;;;;;;9.25;5.55;;;17.30;69.70;;;;;;4975631;28;20169;-82
2023/05/01 10:15:10;;;;;;;10.10;5.80;;;17.20;71.40;;;;;;4975437;28;20185;-82
2023/05/01 10:17:38;;;;;;;7.30;5.97;;;17.20;71.50;;;;;;4973962;28;20212;-82
2023/05/01 10:20:05;;;;;;;8.65;5.60;;;17.20;70.20;;;;;;4973621;28;20189;-82
2023/05/01 10:22:31;;;;;;;10.23;5.22;;;17.40;69.80;;;;;;4974857;28;20196;-82
2023/05/01 10:24:58;;;;;;;9.02;6.28;;;17.50;70.60;;;;;;4990672;28;20266;-85
2023/05/01 10:27:25;;;;;;;8.60;5.63;;;17.60;68.80;;;;;;4993530;28;20200;-84
2023/05/01 10:29:52;;;;;;;6.95;5.30;;;17.70;68.90;;;;;;4994543;28;20176;-84
2023/05/01 10:32:19;;;;;;;7.22;5.47;;;17.70;68.40;;;;;;4992806;28;20184;-84
2023/05/01 10:34:51;;;;;;;8.00;5.20;;;17.60;69.00;;;;;;4993067;28;20180;-84
2023/05/01 10:37:42;;;;;;;8.43;5.80;;;17.60;69.90;;;;;;4992961;28;20472;-83
2023/05/01 10:40:39;;;;;;;6.35;5.20;;;17.70;69.50;;;;;;4993187;28;20207;-83
2023/05/01 10:43:30;;;;;;;6.53;5.30;;;18.00;69.30;;;;;;4992636;28;20172;-83
2023/05/01 10:46:20;;;;;;;8.00;5.57;;;18.00;66.00;;;;;;4992831;28;20219;-83
2023/05/01 10:48:45;;;;;;;9.88;5.75;;;17.90;67.50;;;;;;4994266;28;20165;-83
2023/05/01 10:51:20;;;;;;;7.60;5.50;;;17.70;70.20;;;;;;4994030;28;20586;-83
2023/05/01 10:53:47;;;;;;;8.40;5.88;;;17.70;68.60;;;;;;4992924;28;20255;-83
2023/05/01 10:56:31;;;;;;;6.35;5.18;;;17.70;67.50;;;;;;4995364;28;20257;-83
2023/05/01 10:58:58;;;;;;;6.75;5.40;;;17.50;67.10;;;;;;4996929;28;20279;-83
2023/05/01 11:01:40;;;;;;;6.72;5.10;;;17.40;67.10;;;;;;4997166;28;20199;-83
2023/05/01 11:04:26;;;;;;;7.25;5.50;;;17.50;68.60;;;;;;4996631;28;20205;-83
2023/05/01 11:07:04;;;;;;;7.00;5.10;;;17.70;68.10;;;;;;4979972;28;20203;-83
2023/05/01 11:09:40;;;;;;;8.05;5.00;;;17.80;68.40;;;;;;4996504;28;20545;-83
2023/05/01 11:12:07;;;;;;;5.95;4.97;;;17.70;69.60;;;;;;4996489;28;20650;-82
2023/05/01 11:14:56;;;;;;;7.00;4.93;;;17.70;67.10;;;;;;4997024;28;20211;-83
2023/05/01 11:17:40;;;;;;;5.20;4.70;;;17.90;66.20;;;;;;4996747;28;20216;-83
2023/05/01 11:20:09;;;;;;;6.43;4.63;;;18.10;65.90;;;;;;4996361;28;20605;-83
2023/05/01 11:22:37;;;;;;;5.25;4.63;;;18.30;63.90;;;;;;4996114;28;20177;-83
2023/05/01 11:25:16;;;;;;;6.63;4.25;;;18.20;63.50;;;;;;4996168;28;20180;-83
2023/05/01 11:27:51;;;;;;;7.43;4.50;;;18.20;62.40;;;;;;4996871;28;20180;-83
2023/05/01 11:30:18;;;;;;;6.93;4.50;;;18.10;65.40;;;;;;4997705;28;20222;-83
2023/05/01 11:32:45;;;;;;;5.43;4.60;;;18.10;64.70;;;;;;4996218;28;20187;-82
2023/05/01 11:35:25;;;;;;;4.93;4.43;;;18.10;66.90;;;;;;4996074;28;20192;-83
2023/05/01 11:37:51;;;;;;;4.88;4.22;;;18.20;66.00;;;;;;4996007;28;20611;-83
2023/05/01 11:40:26;;;;;;;8.35;4.72;;;18.30;65.50;;;;;;4996113;28;20200;-83
2023/05/01 11:43:06;;;;;;;4.93;4.43;;;18.20;66.50;;;;;;4996081;28;20172;-83
2023/05/01 11:45:34;;;;;;;7.65;5.25;;;18.30;64.80;;;;;;4996627;28;20227;-82
2023/05/01 11:48:01;;;;;;;5.40;4.60;;;18.20;65.60;;;;;;4995939;28;20231;-83
2023/05/01 11:50:37;;;;;;;5.38;4.40;;;18.30;64.20;;;;;;4995876;28;20188;-83
2023/05/01 11:53:10;;;;;;;7.47;5.00;;;18.30;64.30;;;;;;4995486;28;20180;-82
2023/05/01 11:55:37;;;;;;;5.60;4.72;;;18.30;65.00;;;;;;4995904;28;20200;-82
2023/05/01 11:58:03;;;;;;;7.28;4.75;;;18.40;64.10;;;;;;4995765;28;20238;-82
2023/05/01 12:00:36;;;;;;;6.22;4.20;;;18.40;64.90;;;;;;4996012;28;20185;-83
2023/05/01 12:03:07;;;;;;;7.78;4.32;;;18.40;64.00;;;;;;4995687;28;20552;-83
2023/05/01 12:05:36;;;;;;;6.32;4.45;;;18.20;66.00;;;;;;4996169;28;20207;-83
2023/05/01 12:08:17;;;;;;;5.55;4.28;;;18.20;65.70;;;;;;4994581;28;20561;-83
2023/05/01 12:10:45;;;;;;;6.47;4.60;;;18.20;65.20;;;;;;4995940;28;20169;-83
2023/05/01 12:13:12;;;;;;;4.55;4.15;;;18.30;62.60;;;;;;4995030;28;20191;-83
2023/05/01 12:15:43;;;;;;;5.38;4.45;;;18.20;63.10;;;;;;4995419;28;20204;-83
2023/05/01 12:18:11;;;;;;;4.80;4.25;;;18.10;65.00;;;;;;4995371;28;20242;-83
2023/05/01 12:20:39;;;;;;;4.50;4.00;;;18.20;64.10;;;;;;4995354;28;20657;-83
2023/05/01 12:23:06;;;;;;;4.97;4.47;;;18.30;63.60;;;;;;4994877;28;20176;-83
2023/05/01 12:25:36;;;;;;;4.70;4.13;;;18.40;64.60;;;;;;4995107;28;20181;-83
2023/05/01 12:28:08;;;;;;;4.47;3.88;;;18.50;63.70;;;;;;4995157;28;20207;-83
2023/05/01 12:30:34;;;;;;;4.60;4.05;;;18.30;62.40;;;;;;4995781;28;20180;-84
2023/05/01 12:33:11;;;;;;;4.43;3.80;;;18.20;63.20;;;;;;4994658;28;20194;-83
2023/05/01 12:35:37;;;;;;;4.30;3.70;;;18.10;64.40;;;;;;4993696;28;20199;-83
2023/05/01 12:38:16;;;;;;;7.10;4.55;;;18.10;62.80;;;;;;4995306;28;20254;-83
2023/05/01 12:40:51;;;;;;;4.82;4.20;;;18.00;64.50;;;;;;4995105;28;20545;-83
2023/05/01 12:43:37;;;;;;;6.88;4.05;;;17.90;65.70;;;;;;4995260;28;20235;-84
2023/05/01 12:46:03;;;;;;;6.15;3.78;;;17.90;65.00;;;;;;4995779;28;20223;-83
2023/05/01 12:48:30;;;;;;;4.90;4.47;;;18.00;64.20;;;;;;4994824;28;20236;-84
2023/05/01 12:50:56;;;;;;;4.85;4.00;;;17.90;64.60;;;;;;4995194;28;20651;-83
2023/05/01 12:53:23;;;;;;;4.35;3.92;;;17.90;65.50;;;;;;4995165;28;20187;-83
2023/05/01 12:55:55;;;;;;;4.50;3.97;;;18.00;65.70;;;;;;4995190;28;20200;-83
2023/05/01 12:58:21;;;;;;;4.05;3.75;;;17.90;66.10;;;;;;4995583;28;20236;-83
2023/05/01 13:00:53;;;;;;;3.90;3.60;;;18.20;66.10;;;;;;4994636;28;20183;-83
2023/05/01 13:03:24;;;;;;;4.05;3.65;;;18.20;65.40;;;;;;4995713;28;20176;-83
2023/05/01 13:05:54;;;;;;;6.88;3.88;;;18.40;66.10;;;;;;4994458;28;20207;-83
2023/05/01 13:08:29;;;;;;;4.95;3.50;;;18.40;66.70;;;;;;4994384;28;20184;-83
2023/05/01 13:10:56;;;;;;;3.72;3.42;;;18.60;66.50;;;;;;4994382;28;20195;-83
2023/05/01 13:13:24;;;;;;;4.53;4.10;;;18.80;63.30;;;;;;4994681;28;20208;-83
2023/05/01 13:15:51;;;;;;;4.15;3.75;;;18.90;62.60;;;;;;4994632;28;20291;-83